Time;durP1;ratioP1;P1;durP2;ratioP2;P2;SDS_P1;SDS_P2;PMS_P1;PMS_P2;Temp;Humidity;BMP_temperature;BMP_pressure;BME280_temperature;BME280_humidity;BME280_pressure;Samples;Min_cycle;Max_cycle;Signal;HPM_P1;HPM_P2
2021/09/27 00:01:18;;;;;;;10.10;8.50;;;18.60;79.00;;;;;;5051931;28;20032;-65
2021/09/27 00:03:45;;;;;;;9.07;7.80;;;18.60;79.00;;;;;;5043210;28;20503;-64
2021/09/27 00:06:12;;;;;;;9.82;8.30;;;18.60;79.10;;;;;;5052131;28;20037;-65
2021/09/27 00:08:38;;;;;;;10.10;8.43;;;18.60;79.00;;;;;;5048798;28;20170;-64
2021/09/27 00:11:15;;;;;;;10.20;8.52;;;18.50;79.10;;;;;;5045673;28;22572;-65
2021/09/27 00:13:43;;;;;;;9.02;7.95;;;18.50;79.20;;;;;;5043059;28;20535;-64
2021/09/27 00:16:11;;;;;;;10.60;8.55;;;18.50;79.10;;;;;;5048773;28;20041;-65
2021/09/27 00:18:37;;;;;;;9.60;7.90;;;18.40;79.20;;;;;;5052448;28;20477;-65
2021/09/27 00:21:07;;;;;;;8.38;7.47;;;18.40;79.20;;;;;;5054581;28;20123;-65
2021/09/27 00:23:35;;;;;;;10.60;7.93;;;18.40;79.50;;;;;;5048727;28;20043;-65
2021/09/27 00:26:01;;;;;;;10.27;7.80;;;18.40;79.30;;;;;;5052476;28;20033;-64
2021/09/27 00:28:27;;;;;;;9.73;8.18;;;18.40;79.30;;;;;;5052687;28;20475;-65
2021/09/27 00:30:53;;;;;;;9.38;8.25;;;18.30;79.30;;;;;;5050321;28;20183;-64
2021/09/27 00:33:21;;;;;;;10.15;8.55;;;18.30;79.20;;;;;;5051475;28;20120;-65
2021/09/27 00:35:47;;;;;;;12.30;8.80;;;18.30;79.30;;;;;;5048939;28;20093;-64
2021/09/27 00:38:14;;;;;;;10.07;8.10;;;18.20;79.20;;;;;;5047352;28;20036;-65
2021/09/27 00:40:43;;;;;;;10.45;7.90;;;18.20;79.30;;;;;;5052165;28;20033;-63
2021/09/27 00:43:10;;;;;;;11.45;8.43;;;18.20;79.40;;;;;;5053888;28;20098;-63
2021/09/27 00:45:40;;;;;;;9.95;8.18;;;18.20;79.30;;;;;;5052727;28;20033;-65
2021/09/27 00:48:06;;;;;;;9.15;7.53;;;18.10;79.40;;;;;;5055568;28;20040;-64
2021/09/27 00:50:40;;;;;;;8.73;7.50;;;18.10;79.30;;;;;;5052692;28;20519;-65
2021/09/27 00:53:14;;;;;;;9.77;7.97;;;18.10;79.40;;;;;;5054678;28;20420;-64
2021/09/27 00:55:41;;;;;;;8.75;7.05;;;18.10;79.30;;;;;;5052873;28;20040;-65
2021/09/27 00:58:07;;;;;;;9.40;7.47;;;18.00;79.00;;;;;;5054954;28;20082;-65
2021/09/27 01:00:33;;;;;;;8.27;7.43;;;18.10;79.10;;;;;;5052110;28;20063;-65
2021/09/27 01:02:58;;;;;;;9.38;7.57;;;18.00;79.00;;;;;;5050786;28;20933;-65
2021/09/27 01:05:24;;;;;;;9.32;8.10;;;18.00;79.10;;;;;;5054804;28;20036;-65
2021/09/27 01:08:40;;;;;;;11.48;8.75;;;18.00;79.20;;;;;;5055873;28;20036;-64
2021/09/27 01:11:34;;;;;;;9.25;7.18;;;18.00;79.60;;;;;;5050363;28;20068;-64
2021/09/27 01:14:12;;;;;;;8.82;7.35;;;18.00;79.50;;;;;;5053120;28;20029;-65
2021/09/27 01:16:49;;;;;;;10.13;7.35;;;17.90;79.00;;;;;;5051901;28;20099;-66
2021/09/27 01:19:34;;;;;;;9.35;7.47;;;17.90;79.30;;;;;;5054770;28;20037;-65
2021/09/27 01:22:23;;;;;;;8.98;7.47;;;17.90;78.90;;;;;;5052551;28;20594;-65
2021/09/27 01:25:07;;;;;;;9.85;7.05;;;17.90;79.00;;;;;;5035166;28;20119;-64
2021/09/27 01:27:46;;;;;;;8.60;7.30;;;17.90;78.70;;;;;;5036161;28;20504;-65
2021/09/27 01:30:45;;;;;;;8.88;7.55;;;17.80;78.70;;;;;;5034257;28;20100;-65
2021/09/27 01:33:36;;;;;;;8.98;7.40;;;17.80;78.70;;;;;;5032778;28;20041;-64
2021/09/27 01:36:17;;;;;;;7.93;7.13;;;17.80;78.50;;;;;;5032910;28;20034;-64
2021/09/27 01:38:58;;;;;;;9.40;7.25;;;17.70;78.40;;;;;;5037242;28;20037;-64
2021/09/27 01:41:57;;;;;;;7.45;6.60;;;17.70;78.60;;;;;;5033130;28;20041;-65
2021/09/27 01:44:40;;;;;;;7.82;6.80;;;17.60;78.80;;;;;;5031070;28;20044;-64
2021/09/27 01:47:28;;;;;;;8.68;7.10;;;17.60;78.90;;;;;;5035763;28;20061;-65
2021/09/27 01:49:58;;;;;;;9.23;6.70;;;17.50;79.00;;;;;;5033719;28;20037;-65
2021/09/27 01:52:42;;;;;;;7.63;6.53;;;17.50;78.70;;;;;;5031398;28;20034;-65
2021/09/27 01:55:15;;;;;;;6.93;6.20;;;17.50;78.90;;;;;;5034293;28;20113;-64
2021/09/27 01:58:05;;;;;;;7.25;6.55;;;17.50;79.00;;;;;;5044830;28;20052;-65
2021/09/27 02:00:48;;;;;;;8.13;7.22;;;17.50;79.30;;;;;;5050040;28;20124;-65
2021/09/27 02:03:29;;;;;;;8.88;7.25;;;17.50;79.70;;;;;;5052935;28;20432;-64
2021/09/27 02:06:09;;;;;;;8.75;7.10;;;17.40;79.30;;;;;;5056481;28;20025;-65
2021/09/27 02:09:00;;;;;;;8.25;6.63;;;17.40;79.40;;;;;;5054388;28;20063;-65
2021/09/27 02:11:30;;;;;;;8.05;6.72;;;17.40;79.90;;;;;;5043299;28;20040;-65
2021/09/27 02:14:14;;;;;;;8.18;7.18;;;17.30;79.60;;;;;;5056357;28;20116;-64
2021/09/27 02:16:46;;;;;;;8.35;6.95;;;17.30;79.60;;;;;;5048235;28;20032;-65
2021/09/27 02:19:31;;;;;;;10.10;7.20;;;17.30;79.70;;;;;;5053259;28;20150;-64
2021/09/27 02:22:10;;;;;;;7.75;6.95;;;17.30;79.70;;;;;;5062936;28;20132;-65
2021/09/27 02:24:47;;;;;;;7.90;6.88;;;17.30;79.50;;;;;;5050132;28;20514;-65
2021/09/27 02:27:12;;;;;;;9.75;7.38;;;17.30;79.80;;;;;;5053494;28;20047;-65
2021/09/27 02:29:39;;;;;;;8.38;7.03;;;17.20;79.70;;;;;;5053893;28;20036;-65
2021/09/27 02:32:14;;;;;;;8.15;7.03;;;17.20;79.90;;;;;;5053607;28;20047;-65
2021/09/27 02:34:55;;;;;;;8.48;6.97;;;17.20;80.30;;;;;;5051394;28;20570;-65
2021/09/27 02:37:44;;;;;;;7.38;6.47;;;17.20;80.30;;;;;;5053554;28;20037;-65
2021/09/27 02:40:19;;;;;;;7.97;6.88;;;17.20;80.30;;;;;;5051544;28;20671;-65
2021/09/27 02:42:52;;;;;;;7.25;6.53;;;17.20;80.00;;;;;;5051032;28;20043;-65
2021/09/27 02:45:20;;;;;;;8.35;7.22;;;17.20;79.90;;;;;;5047300;28;20033;-65
2021/09/27 02:47:50;;;;;;;8.57;7.65;;;17.10;79.80;;;;;;5053960;28;20029;-65
2021/09/27 02:50:22;;;;;;;8.85;7.55;;;17.10;80.00;;;;;;5049874;28;20519;-65
2021/09/27 02:52:48;;;;;;;8.38;6.95;;;17.10;80.30;;;;;;5053216;28;20064;-65
2021/09/27 02:55:18;;;;;;;10.02;7.47;;;17.10;80.00;;;;;;5052984;28;20515;-64
2021/09/27 02:58:17;;;;;;;8.52;7.63;;;17.10;80.10;;;;;;5055265;28;20036;-64
2021/09/27 03:01:03;;;;;;;9.27;7.47;;;17.10;80.20;;;;;;5053127;28;20164;-65
2021/09/27 03:03:41;;;;;;;9.75;7.57;;;17.10;80.30;;;;;;5051948;28;20109;-64
2021/09/27 03:06:18;;;;;;;9.38;7.88;;;17.00;80.10;;;;;;5052313;28;20044;-64
2021/09/27 03:09:10;;;;;;;8.55;7.40;;;17.00;80.30;;;;;;5053544;28;20496;-64
2021/09/27 03:12:09;;;;;;;9.73;7.10;;;17.00;80.30;;;;;;5048165;28;20047;-65
2021/09/27 03:14:41;;;;;;;8.65;7.00;;;17.00;80.30;;;;;;5052816;28;20114;-65
2021/09/27 03:17:07;;;;;;;8.88;7.60;;;17.00;80.00;;;;;;5054816;28;20112;-65
2021/09/27 03:19:44;;;;;;;7.80;6.57;;;16.90;79.90;;;;;;5044820;28;20036;-65
2021/09/27 03:22:38;;;;;;;10.07;7.32;;;16.90;80.10;;;;;;5042929;28;20040;-65
2021/09/27 03:25:10;;;;;;;8.30;7.20;;;16.90;79.90;;;;;;5049849;28;20119;-65
2021/09/27 03:27:54;;;;;;;8.23;7.28;;;16.90;79.40;;;;;;5053872;28;20035;-66
2021/09/27 03:30:41;;;;;;;7.82;7.00;;;16.90;79.30;;;;;;5047957;28;21707;-65
2021/09/27 03:33:33;;;;;;;8.48;7.10;;;16.80;79.10;;;;;;5051992;28;20036;-64
2021/09/27 03:36:16;;;;;;;7.65;6.43;;;16.70;79.10;;;;;;5026855;28;20038;-66
2021/09/27 03:38:51;;;;;;;9.00;6.95;;;16.70;79.10;;;;;;5023577;28;23253;-66
2021/09/27 03:41:22;;;;;;;8.32;7.20;;;16.60;78.90;;;;;;5036420;28;20029;-65
2021/09/27 03:43:58;;;;;;;7.95;7.10;;;16.60;79.40;;;;;;5050106;28;20063;-66
2021/09/27 03:47:00;;;;;;;8.27;7.00;;;16.50;79.60;;;;;;5048445;28;20508;-65
2021/09/27 03:49:50;;;;;;;8.63;6.70;;;16.50;80.10;;;;;;5046007;28;20047;-65
2021/09/27 03:52:30;;;;;;;9.18;6.72;;;16.40;80.30;;;;;;5049026;28;20512;-65
2021/09/27 03:55:22;;;;;;;7.40;6.43;;;16.30;80.20;;;;;;5023566;28;20037;-65
2021/09/27 03:58:12;;;;;;;8.80;6.32;;;16.30;80.10;;;;;;5029766;28;20129;-65
2021/09/27 04:00:47;;;;;;;7.80;6.65;;;16.30;80.30;;;;;;5029679;28;20033;-65
2021/09/27 04:03:34;;;;;;;8.95;7.28;;;16.30;80.00;;;;;;5043904;28;20033;-65
2021/09/27 04:06:24;;;;;;;10.43;6.97;;;16.30;80.90;;;;;;5045869;28;20876;-66
2021/09/27 04:09:06;;;;;;;10.82;7.57;;;16.20;81.30;;;;;;5030564;28;20040;-65
2021/09/27 04:11:40;;;;;;;8.63;6.90;;;16.10;81.40;;;;;;5029175;28;20044;-65
2021/09/27 04:14:30;;;;;;;7.13;6.17;;;16.10;81.30;;;;;;5034005;28;20041;-65
2021/09/27 04:17:16;;;;;;;12.00;9.80;;;16.10;81.20;;;;;;5029029;28;20040;-65
2021/09/27 04:19:47;;;;;;;9.63;6.53;;;16.00;81.00;;;;;;5027705;28;20021;-65
2021/09/27 04:22:20;;;;;;;8.07;7.10;;;16.00;80.50;;;;;;5042978;28;20128;-64
2021/09/27 04:25:16;;;;;;;10.25;7.80;;;16.00;80.50;;;;;;5042872;28;20040;-66
2021/09/27 04:28:03;;;;;;;11.02;7.97;;;16.00;80.60;;;;;;5048008;28;20490;-65
2021/09/27 04:30:47;;;;;;;8.45;7.28;;;16.00;80.50;;;;;;5044271;28;20051;-65
2021/09/27 04:33:19;;;;;;;9.65;7.13;;;16.00;80.30;;;;;;5049844;28;20032;-65
2021/09/27 04:36:01;;;;;;;9.38;7.20;;;16.00;80.10;;;;;;5053734;28;20052;-65
2021/09/27 04:38:28;;;;;;;7.82;7.00;;;15.90;80.10;;;;;;5053673;28;20032;-65
2021/09/27 04:41:40;;;;;;;8.23;7.32;;;15.90;80.10;;;;;;5053623;28;20055;-65
2021/09/27 04:44:46;;;;;;;9.20;7.70;;;15.90;80.70;;;;;;5009178;28;20049;-66
2021/09/27 04:47:41;;;;;;;9.07;8.00;;;15.90;80.90;;;;;;5033255;28;20041;-67
2021/09/27 04:50:22;;;;;;;8.05;7.18;;;15.90;80.90;;;;;;5033342;28;20041;-66
2021/09/27 04:52:50;;;;;;;7.80;7.00;;;15.90;80.70;;;;;;5034084;28;20034;-65
2021/09/27 04:55:22;;;;;;;8.80;7.00;;;15.90;80.60;;;;;;5033956;28;20033;-65
2021/09/27 04:57:48;;;;;;;10.73;7.63;;;15.90;81.00;;;;;;5031199;28;20037;-65
2021/09/27 05:00:19;;;;;;;8.18;7.30;;;15.80;80.90;;;;;;5034918;28;20029;-65
2021/09/27 05:02:55;;;;;;;8.95;6.78;;;15.90;81.20;;;;;;5030888;28;20107;-66
2021/09/27 05:05:52;;;;;;;8.18;7.30;;;15.90;81.20;;;;;;5035004;28;20082;-65
2021/09/27 05:08:57;;;;;;;8.70;7.80;;;15.90;81.70;;;;;;5034597;28;20087;-65
2021/09/27 05:11:42;;;;;;;8.48;7.57;;;15.90;81.70;;;;;;5028748;28;20489;-65
2021/09/27 05:14:17;;;;;;;8.80;7.60;;;16.00;81.70;;;;;;5032868;28;20103;-66
2021/09/27 05:16:57;;;;;;;9.02;7.68;;;16.00;81.40;;;;;;5034304;28;20033;-66
2021/09/27 05:19:23;;;;;;;10.30;7.88;;;16.00;81.70;;;;;;5028585;28;20088;-66
2021/09/27 05:22:17;;;;;;;10.25;8.43;;;16.00;81.50;;;;;;5033560;28;20042;-65
2021/09/27 05:25:08;;;;;;;9.10;8.07;;;16.10;82.30;;;;;;5022795;28;20044;-66
2021/09/27 05:28:06;;;;;;;11.13;8.57;;;16.10;82.00;;;;;;5037411;28;20057;-66
2021/09/27 05:30:34;;;;;;;12.77;9.43;;;16.00;82.50;;;;;;5038429;28;20034;-66
2021/09/27 05:33:14;;;;;;;12.07;9.65;;;16.10;82.20;;;;;;5033660;28;20063;-66
2021/09/27 05:35:39;;;;;;;12.80;9.23;;;16.00;82.80;;;;;;5035232;28;20061;-66
2021/09/27 05:38:26;;;;;;;12.98;9.10;;;16.10;82.60;;;;;;5037527;28;20030;-65
2021/09/27 05:41:27;;;;;;;12.88;9.90;;;16.10;83.40;;;;;;5042112;28;20028;-66
2021/09/27 05:44:14;;;;;;;13.10;9.95;;;16.10;83.60;;;;;;5054839;28;20869;-66
2021/09/27 05:47:01;;;;;;;12.20;9.27;;;16.10;83.10;;;;;;5053665;28;20108;-65
2021/09/27 05:50:17;;;;;;;16.00;10.30;;;16.20;83.60;;;;;;5053272;28;20052;-65
2021/09/27 05:53:07;;;;;;;12.95;9.55;;;16.20;84.00;;;;;;5055059;28;20595;-65
2021/09/27 05:56:10;;;;;;;14.95;10.07;;;16.20;83.30;;;;;;5057753;28;20047;-65
2021/09/27 05:59:03;;;;;;;15.55;10.15;;;16.30;84.80;;;;;;5058030;28;20032;-65
2021/09/27 06:01:38;;;;;;;17.30;12.05;;;16.30;84.30;;;;;;5058486;28;20020;-65
2021/09/27 06:04:22;;;;;;;19.60;11.80;;;16.30;84.10;;;;;;5058492;28;20404;-67
2021/09/27 06:07:01;;;;;;;17.00;11.48;;;16.30;83.60;;;;;;5058232;28;20099;-65
2021/09/27 06:09:49;;;;;;;20.98;12.45;;;16.40;83.80;;;;;;5059031;28;20105;-66
2021/09/27 06:12:33;;;;;;;17.83;12.30;;;16.40;84.60;;;;;;5055828;28;20045;-65
2021/09/27 06:15:04;;;;;;;20.23;12.50;;;16.50;84.80;;;;;;5058387;28;20032;-65
2021/09/27 06:18:03;;;;;;;19.55;12.82;;;16.50;84.10;;;;;;5056768;28;20041;-65
2021/09/27 06:20:57;;;;;;;19.60;12.35;;;16.50;84.80;;;;;;5057169;28;20564;-66
2021/09/27 06:23:31;;;;;;;20.17;12.82;;;16.60;85.00;;;;;;5057493;28;20041;-65
2021/09/27 06:26:00;;;;;;;22.65;13.02;;;16.60;84.10;;;;;;5058868;28;20037;-66
2021/09/27 06:28:37;;;;;;;20.65;13.30;;;16.60;84.30;;;;;;5058000;28;20512;-66
2021/09/27 06:31:28;;;;;;;19.05;12.77;;;16.70;84.70;;;;;;5056778;28;20579;-66
2021/09/27 06:34:21;;;;;;;18.67;12.98;;;16.70;85.00;;;;;;5055766;28;20503;-65
2021/09/27 06:36:48;;;;;;;22.77;12.63;;;16.80;85.00;;;;;;5058210;28;20397;-66
2021/09/27 06:39:21;;;;;;;19.13;12.85;;;16.80;84.20;;;;;;5058693;28;20120;-66
2021/09/27 06:41:50;;;;;;;19.65;13.18;;;16.80;84.50;;;;;;5058640;28;20052;-65
2021/09/27 06:44:16;;;;;;;19.15;12.45;;;16.90;84.30;;;;;;5057235;28;20120;-65
2021/09/27 06:46:42;;;;;;;20.75;13.00;;;16.90;84.10;;;;;;5057844;28;20410;-66
2021/09/27 06:49:08;;;;;;;19.42;12.18;;;16.90;84.10;;;;;;5057308;28;20120;-66
2021/09/27 06:51:42;;;;;;;18.58;12.52;;;17.00;84.20;;;;;;5058352;28;20369;-65
2021/09/27 06:54:09;;;;;;;21.63;13.05;;;17.00;84.10;;;;;;5057675;28;20043;-65
2021/09/27 06:56:35;;;;;;;19.08;12.23;;;17.00;84.10;;;;;;5055889;28;20511;-65
2021/09/27 06:59:01;;;;;;;16.00;11.45;;;17.10;84.10;;;;;;5057647;28;20148;-66
2021/09/27 07:01:26;;;;;;;16.45;11.60;;;17.10;84.00;;;;;;5051493;28;20620;-65
2021/09/27 07:03:52;;;;;;;15.70;11.55;;;17.20;83.90;;;;;;5051592;28;20048;-65
2021/09/27 07:06:18;;;;;;;14.60;10.57;;;17.10;83.60;;;;;;5056408;28;20033;-66
2021/09/27 07:08:44;;;;;;;15.07;11.35;;;17.20;83.70;;;;;;5054524;28;20037;-65
2021/09/27 07:11:11;;;;;;;15.68;11.30;;;17.20;83.70;;;;;;5049545;28;20029;-64
2021/09/27 07:13:37;;;;;;;15.40;11.38;;;17.20;83.70;;;;;;5055349;28;20035;-64
2021/09/27 07:16:03;;;;;;;14.25;11.27;;;17.20;83.70;;;;;;5056180;28;20407;-66
2021/09/27 07:18:28;;;;;;;14.50;11.15;;;17.30;83.70;;;;;;5052018;28;20099;-65
2021/09/27 07:20:58;;;;;;;16.95;11.38;;;17.30;83.80;;;;;;5055273;28;20116;-66
2021/09/27 07:23:24;;;;;;;14.02;10.30;;;17.30;83.80;;;;;;5051467;28;20484;-65
2021/09/27 07:25:49;;;;;;;14.07;10.85;;;17.40;83.60;;;;;;5054363;28;20033;-66
2021/09/27 07:28:17;;;;;;;14.27;10.88;;;17.40;83.40;;;;;;5051345;28;20040;-65
2021/09/27 07:30:43;;;;;;;15.82;11.65;;;17.40;83.20;;;;;;5053333;28;20041;-66
2021/09/27 07:33:10;;;;;;;14.85;10.98;;;17.50;83.10;;;;;;5052491;28;20033;-66
2021/09/27 07:35:36;;;;;;;15.25;11.40;;;17.50;83.10;;;;;;5054901;28;20035;-66
2021/09/27 07:38:01;;;;;;;15.57;11.90;;;17.50;83.10;;;;;;5052200;28;20037;-66
2021/09/27 07:40:30;;;;;;;16.23;11.70;;;17.50;83.10;;;;;;5053668;28;20029;-65
2021/09/27 07:42:56;;;;;;;14.80;10.70;;;17.50;83.10;;;;;;5053909;28;20029;-66
2021/09/27 07:45:24;;;;;;;17.17;12.15;;;17.50;83.10;;;;;;5055008;28;20043;-66
2021/09/27 07:47:49;;;;;;;16.25;11.82;;;17.60;83.30;;;;;;5053318;28;20048;-66
2021/09/27 07:50:16;;;;;;;15.30;11.55;;;17.60;83.10;;;;;;5053743;28;20049;-66
2021/09/27 07:52:42;;;;;;;14.65;11.35;;;17.60;83.10;;;;;;5053764;28;20029;-66
2021/09/27 07:55:10;;;;;;;14.48;10.85;;;17.60;83.10;;;;;;5049708;28;20036;-66
2021/09/27 07:57:36;;;;;;;15.20;10.65;;;17.70;82.80;;;;;;5056735;28;20487;-65
2021/09/27 08:00:03;;;;;;;14.57;10.70;;;17.80;82.70;;;;;;5054841;28;20289;-66
2021/09/27 08:02:30;;;;;;;13.00;10.18;;;17.80;82.60;;;;;;5051463;28;20075;-66
2021/09/27 08:04:57;;;;;;;14.15;10.32;;;17.80;82.40;;;;;;5055630;28;20047;-66
2021/09/27 08:07:23;;;;;;;13.75;10.55;;;17.90;82.20;;;;;;5052374;28;20123;-66
2021/09/27 08:09:49;;;;;;;14.65;10.75;;;17.90;82.20;;;;;;5053855;28;20040;-66
2021/09/27 08:12:14;;;;;;;13.88;10.27;;;17.90;82.20;;;;;;5049337;28;20037;-65
2021/09/27 08:14:40;;;;;;;15.23;11.10;;;18.00;82.20;;;;;;5053290;28;20083;-66
2021/09/27 08:17:07;;;;;;;14.93;10.63;;;18.00;82.00;;;;;;5053318;28;20086;-66
2021/09/27 08:19:33;;;;;;;13.20;10.13;;;18.00;82.00;;;;;;5052346;28;20031;-66
2021/09/27 08:21:59;;;;;;;13.65;10.38;;;18.00;81.90;;;;;;5055098;28;20438;-66
2021/09/27 08:24:24;;;;;;;13.68;10.65;;;18.10;81.90;;;;;;5049510;28;20032;-66
2021/09/27 08:26:50;;;;;;;12.30;9.50;;;18.10;81.80;;;;;;5053857;28;20095;-66
2021/09/27 08:29:17;;;;;;;13.80;10.38;;;18.10;81.90;;;;;;5054444;28;20106;-65
2021/09/27 08:31:43;;;;;;;13.98;10.32;;;18.10;82.10;;;;;;5052747;28;20047;-66
2021/09/27 08:34:09;;;;;;;18.38;11.32;;;18.20;82.40;;;;;;5053038;28;20025;-66
2021/09/27 08:36:35;;;;;;;12.63;9.63;;;18.20;82.50;;;;;;5051778;28;20389;-66
2021/09/27 08:39:02;;;;;;;11.63;9.48;;;18.30;82.30;;;;;;5051292;28;20024;-66
2021/09/27 08:41:32;;;;;;;12.77;9.68;;;18.30;82.00;;;;;;5053635;28;20095;-65
2021/09/27 08:44:10;;;;;;;12.57;9.82;;;18.40;82.00;;;;;;5053471;28;20033;-67
2021/09/27 08:46:39;;;;;;;14.65;10.40;;;18.50;82.00;;;;;;5053688;28;20032;-66
2021/09/27 08:49:22;;;;;;;13.02;9.75;;;18.60;82.10;;;;;;5055385;28;20044;-67
2021/09/27 08:51:49;;;;;;;13.10;9.23;;;18.70;81.70;;;;;;5056525;28;20036;-66
2021/09/27 08:54:19;;;;;;;12.32;9.35;;;18.70;81.80;;;;;;5049400;28;20056;-66
2021/09/27 08:57:00;;;;;;;12.15;9.13;;;18.80;81.30;;;;;;5050554;28;20054;-66
2021/09/27 08:59:50;;;;;;;11.10;9.40;;;18.90;81.00;;;;;;5051372;28;20707;-66
2021/09/27 09:02:52;;;;;;;13.95;10.63;;;19.00;80.90;;;;;;5048793;28;20037;-65
2021/09/27 09:05:32;;;;;;;14.05;10.77;;;19.10;80.30;;;;;;5028969;28;20124;-67
2021/09/27 09:08:21;;;;;;;13.35;10.52;;;19.10;80.10;;;;;;5027687;28;20420;-65
2021/09/27 09:10:52;;;;;;;14.23;10.90;;;19.10;79.80;;;;;;5026122;28;20048;-67
2021/09/27 09:13:23;;;;;;;11.98;9.90;;;19.20;79.90;;;;;;5034691;28;20044;-66
2021/09/27 09:15:57;;;;;;;11.63;9.20;;;19.20;79.70;;;;;;5030542;28;20036;-66
2021/09/27 09:18:30;;;;;;;10.80;8.18;;;19.20;79.60;;;;;;5037996;28;20033;-65
2021/09/27 09:21:00;;;;;;;11.65;9.02;;;19.30;79.30;;;;;;5037825;28;20041;-66
2021/09/27 09:23:34;;;;;;;11.30;9.48;;;19.40;80.20;;;;;;5039375;28;20037;-66
2021/09/27 09:26:06;;;;;;;10.80;9.20;;;19.40;79.40;;;;;;5035163;28;20033;-66
2021/09/27 09:28:33;;;;;;;11.75;8.48;;;19.40;79.20;;;;;;5037865;28;20287;-66
2021/09/27 09:31:07;;;;;;;10.43;8.32;;;19.50;79.10;;;;;;5036758;28;20183;-66
2021/09/27 09:34:21;;;;;;;9.32;7.35;;;19.50;78.40;;;;;;5037173;28;20025;-67
2021/09/27 09:36:53;;;;;;;11.40;9.02;;;19.60;78.20;;;;;;5033657;28;20053;-66
2021/09/27 09:39:28;;;;;;;9.90;8.40;;;19.60;78.10;;;;;;5037671;28;20033;-66
2021/09/27 09:41:55;;;;;;;12.43;8.20;;;19.70;78.00;;;;;;5032339;28;20053;-65
2021/09/27 09:44:29;;;;;;;8.15;7.35;;;19.70;78.00;;;;;;5035775;28;20025;-66
2021/09/27 09:47:18;;;;;;;7.07;6.10;;;19.70;78.10;;;;;;5036843;28;20091;-65
2021/09/27 09:50:10;;;;;;;6.80;6.10;;;19.80;76.10;;;;;;5035973;28;20045;-66
2021/09/27 09:52:45;;;;;;;6.88;6.18;;;19.90;75.70;;;;;;5037039;28;20068;-65
2021/09/27 09:55:14;;;;;;;7.10;5.90;;;20.00;76.30;;;;;;5036573;28;20124;-66
2021/09/27 09:57:43;;;;;;;6.90;5.90;;;20.00;75.60;;;;;;5034404;28;20605;-66
2021/09/27 10:00:20;;;;;;;5.97;5.20;;;20.10;76.80;;;;;;5037404;28;20160;-66
2021/09/27 10:02:52;;;;;;;5.55;5.05;;;20.10;75.30;;;;;;5031902;28;20039;-66
2021/09/27 10:05:27;;;;;;;4.97;4.55;;;20.20;75.00;;;;;;5037253;28;20033;-66
2021/09/27 10:07:57;;;;;;;4.85;4.45;;;20.20;74.50;;;;;;5038509;28;20121;-66
2021/09/27 10:10:39;;;;;;;5.43;4.93;;;20.30;74.30;;;;;;5034382;28;20404;-66
2021/09/27 10:13:27;;;;;;;14.45;4.78;;;20.40;73.80;;;;;;5040214;28;20123;-65
2021/09/27 10:15:53;;;;;;;5.63;5.13;;;20.40;73.00;;;;;;5049888;28;20211;-66
2021/09/27 10:18:27;;;;;;;5.30;4.78;;;20.50;73.80;;;;;;5055787;28;20591;-65
2021/09/27 10:21:03;;;;;;;4.82;4.32;;;20.50;72.30;;;;;;5070401;28;20464;-66
2021/09/27 10:23:48;;;;;;;5.25;4.25;;;20.60;71.30;;;;;;5055294;28;20052;-65
2021/09/27 10:26:18;;;;;;;4.10;3.80;;;20.60;71.50;;;;;;5057816;28;20036;-65
2021/09/27 10:28:44;;;;;;;3.70;3.40;;;20.70;72.10;;;;;;5056073;28;20045;-66
2021/09/27 10:31:11;;;;;;;4.60;3.47;;;20.70;71.60;;;;;;5054474;28;20439;-66
2021/09/27 10:33:42;;;;;;;4.35;3.65;;;20.80;71.40;;;;;;5054338;28;20091;-66
2021/09/27 10:36:17;;;;;;;3.75;3.45;;;20.90;70.90;;;;;;5056112;28;20446;-66
2021/09/27 10:38:58;;;;;;;3.65;3.35;;;21.00;70.20;;;;;;5070573;28;20129;-66
2021/09/27 10:42:00;;;;;;;4.68;4.28;;;21.00;69.30;;;;;;5053659;28;20043;-66
2021/09/27 10:44:42;;;;;;;4.38;3.97;;;21.10;68.60;;;;;;5052406;28;20506;-66
2021/09/27 10:47:18;;;;;;;3.72;3.42;;;21.20;69.00;;;;;;5057120;28;20496;-66
2021/09/27 10:49:48;;;;;;;4.22;3.83;;;21.20;69.70;;;;;;5054671;28;20052;-66
2021/09/27 10:52:16;;;;;;;4.80;3.92;;;21.20;69.70;;;;;;5057366;28;20573;-66
2021/09/27 10:54:55;;;;;;;4.38;3.97;;;21.30;68.90;;;;;;5053518;28;20055;-66
2021/09/27 10:57:24;;;;;;;5.85;4.25;;;21.30;68.90;;;;;;5055156;28;20028;-65
2021/09/27 11:00:04;;;;;;;4.82;4.43;;;21.40;69.20;;;;;;5055078;28;20029;-66
2021/09/27 11:02:46;;;;;;;4.85;4.43;;;21.40;69.50;;;;;;5052350;28;20032;-66
2021/09/27 11:05:25;;;;;;;4.32;3.92;;;21.40;70.00;;;;;;5052608;28;20100;-66
2021/09/27 11:07:55;;;;;;;4.70;4.20;;;21.50;70.10;;;;;;5057966;28;20033;-66
2021/09/27 11:10:27;;;;;;;4.53;4.13;;;21.60;69.70;;;;;;5052278;28;20048;-66
2021/09/27 11:12:54;;;;;;;4.70;4.30;;;21.70;70.20;;;;;;5032930;28;20038;-66
2021/09/27 11:15:23;;;;;;;4.60;4.10;;;21.80;69.30;;;;;;5033200;28;20040;-66
2021/09/27 11:17:59;;;;;;;4.45;4.05;;;21.90;68.90;;;;;;5037953;28;20025;-66
2021/09/27 11:20:53;;;;;;;4.78;4.35;;;22.00;68.00;;;;;;5034497;28;20033;-66
2021/09/27 11:23:31;;;;;;;4.75;4.25;;;22.10;67.50;;;;;;5036794;28;20083;-66
2021/09/27 11:26:06;;;;;;;4.80;4.20;;;22.20;68.30;;;;;;5034487;28;20033;-66
2021/09/27 11:29:24;;;;;;;4.38;4.03;;;22.20;68.10;;;;;;5033926;28;20386;-66
2021/09/27 11:32:12;;;;;;;4.45;4.05;;;22.30;67.80;;;;;;5014803;28;20026;-66
2021/09/27 11:34:38;;;;;;;5.50;4.07;;;22.40;66.60;;;;;;5032463;28;20030;-67
2021/09/27 11:37:36;;;;;;;4.60;4.20;;;22.40;67.90;;;;;;5034351;28;20086;-67
2021/09/27 11:40:01;;;;;;;4.32;4.00;;;22.50;67.00;;;;;;5022607;28;20030;-67
2021/09/27 11:42:48;;;;;;;8.20;3.97;;;22.60;67.60;;;;;;5033483;28;20044;-66
2021/09/27 11:45:39;;;;;;;5.20;4.18;;;22.70;66.10;;;;;;5030910;28;20079;-66
2021/09/27 11:48:07;;;;;;;5.03;4.50;;;22.70;65.00;;;;;;5035160;28;20021;-66
2021/09/27 11:50:45;;;;;;;4.70;4.30;;;22.80;64.70;;;;;;5034040;28;22167;-66
2021/09/27 11:53:17;;;;;;;8.05;4.05;;;22.80;64.60;;;;;;5034586;28;20402;-67
2021/09/27 11:55:50;;;;;;;5.30;4.60;;;22.90;64.90;;;;;;5034693;28;20154;-67
2021/09/27 11:58:50;;;;;;;4.70;4.30;;;22.90;64.10;;;;;;5034364;28;20052;-67
2021/09/27 12:01:39;;;;;;;5.50;4.32;;;22.90;63.30;;;;;;5032073;28;20033;-67
2021/09/27 12:04:35;;;;;;;4.47;4.05;;;23.00;62.90;;;;;;5036193;28;20053;-67
2021/09/27 12:07:04;;;;;;;4.95;3.97;;;23.00;63.40;;;;;;5035629;28;20025;-66
2021/09/27 12:09:58;;;;;;;4.55;4.15;;;23.00;62.90;;;;;;5036482;28;20446;-67
2021/09/27 12:12:28;;;;;;;4.38;3.92;;;23.10;61.80;;;;;;5032352;28;20056;-67
2021/09/27 12:14:56;;;;;;;4.65;4.00;;;23.10;63.10;;;;;;5034468;28;20108;-67
2021/09/27 12:17:30;;;;;;;6.43;4.32;;;23.20;63.00;;;;;;5035870;28;20497;-66
2021/09/27 12:20:06;;;;;;;4.90;4.50;;;23.20;62.70;;;;;;5035584;28;20033;-67
2021/09/27 12:22:47;;;;;;;4.85;4.45;;;23.20;62.00;;;;;;5035313;28;20060;-67
2021/09/27 12:25:21;;;;;;;4.30;4.00;;;23.30;62.60;;;;;;5036292;28;20520;-67
2021/09/27 12:27:51;;;;;;;4.23;3.93;;;23.40;62.40;;;;;;5035799;28;20063;-67
2021/09/27 12:30:21;;;;;;;4.40;4.03;;;23.40;62.60;;;;;;5036709;28;20037;-67
2021/09/27 12:32:53;;;;;;;4.72;4.15;;;23.40;61.30;;;;;;5033033;28;20503;-67
2021/09/27 12:35:25;;;;;;;4.05;3.75;;;23.40;61.10;;;;;;5036897;28;20132;-67
2021/09/27 12:37:53;;;;;;;4.15;3.85;;;23.50;60.90;;;;;;5038872;28;20035;-67
2021/09/27 12:40:22;;;;;;;4.63;3.90;;;23.50;60.60;;;;;;5040639;28;20445;-67
2021/09/27 12:43:05;;;;;;;4.25;3.78;;;23.50;60.40;;;;;;5043350;28;20403;-67
2021/09/27 12:45:54;;;;;;;5.10;3.90;;;23.50;59.80;;;;;;5059814;28;20040;-66
2021/09/27 12:48:40;;;;;;;4.93;4.05;;;23.50;59.80;;;;;;5058629;28;20041;-66
2021/09/27 12:51:26;;;;;;;5.72;3.67;;;23.50;59.80;;;;;;5039093;28;20049;-67
2021/09/27 12:54:03;;;;;;;3.90;3.60;;;23.60;60.10;;;;;;5038978;28;20446;-67
2021/09/27 12:56:31;;;;;;;4.75;4.05;;;23.60;60.40;;;;;;5035792;28;20399;-67
2021/09/27 12:59:05;;;;;;;4.60;4.22;;;23.60;60.30;;;;;;5039312;28;20037;-66
2021/09/27 13:01:45;;;;;;;3.85;3.65;;;23.60;59.70;;;;;;5039572;28;20098;-67
2021/09/27 13:04:31;;;;;;;4.28;3.97;;;23.60;59.90;;;;;;5039107;28;20200;-66
2021/09/27 13:07:04;;;;;;;4.07;3.78;;;23.60;59.40;;;;;;5043456;28;20446;-66
2021/09/27 13:09:34;;;;;;;3.80;3.50;;;23.60;59.00;;;;;;5060036;28;20427;-67
2021/09/27 13:12:16;;;;;;;4.97;3.90;;;23.70;59.90;;;;;;5056420;28;20063;-67
2021/09/27 13:14:45;;;;;;;3.53;3.22;;;23.70;58.00;;;;;;5058311;28;20028;-67
2021/09/27 13:17:38;;;;;;;3.47;3.17;;;23.70;58.60;;;;;;5059629;28;20050;-67
2021/09/27 13:20:27;;;;;;;3.55;3.25;;;23.80;58.10;;;;;;5057331;28;20059;-67
2021/09/27 13:22:53;;;;;;;3.17;2.95;;;23.80;57.60;;;;;;5057600;28;20040;-66
2021/09/27 13:25:37;;;;;;;3.47;3.17;;;23.80;58.50;;;;;;5058931;28;20033;-66
2021/09/27 13:28:15;;;;;;;3.60;3.28;;;23.90;57.50;;;;;;5058563;28;20025;-67
2021/09/27 13:30:41;;;;;;;3.95;3.65;;;23.90;58.30;;;;;;5058141;28;20040;-66